Time;durP1;ratioP1;P1;durP2;ratioP2;P2;SDS_P1;SDS_P2;PMS_P1;PMS_P2;Temp;Humidity;BMP_temperature;BMP_pressure;BME280_temperature;BME280_humidity;BME280_pressure;Samples;Min_cycle;Max_cycle;Signal;HPM_P1;HPM_P2
2021/01/23 00:01:41;;;;;;;11.98;3.15;;;;;;;;;;5071589;28;20035;-81
2021/01/23 00:04:08;;;;;;;17.73;3.38;;;;;;;;;;5066060;28;20508;-80
2021/01/23 00:06:35;;;;;;;16.92;2.55;;;;;;;;;;5073023;28;20040;-81
2021/01/23 00:09:02;;;;;;;11.18;2.28;;;;;;;;;;5072507;28;20039;-80
2021/01/23 00:11:29;;;;;;;10.35;2.35;;;;;;;;;;5075469;28;20043;-81
2021/01/23 00:13:56;;;;;;;16.50;2.97;;;;;;;;;;5072786;28;20025;-81
2021/01/23 00:16:24;;;;;;;14.23;3.33;;;;;;;;;;5074712;28;20635;-81
2021/01/23 00:18:51;;;;;;;8.63;2.50;;;;;;;;;;5072287;28;20040;-81
2021/01/23 00:21:18;;;;;;;12.00;3.22;;;;;;;;;;5074434;28;20013;-81
2021/01/23 00:23:45;;;;;;;15.30;3.58;;;;;;;;;;5070235;28;20035;-81
2021/01/23 00:26:12;;;;;;;12.45;2.28;;;;;;;;;;5072917;28;20086;-81
2021/01/23 00:28:39;;;;;;;11.68;2.25;;;;;;;;;;5072121;28;20074;-81
2021/01/23 00:31:06;;;;;;;11.18;2.78;;;;;;;;;;5074632;28;20035;-81
2021/01/23 00:33:33;;;;;;;13.80;2.45;;;;;;;;;;5072203;28;20036;-81
2021/01/23 00:36:00;;;;;;;14.63;2.95;;;;;;;;;;5073994;28;20082;-82
2021/01/23 00:38:28;;;;;;;13.93;2.75;;;;;;;;;;5073192;28;20059;-81
2021/01/23 00:40:55;;;;;;;12.55;2.63;;;;;;;;;;5071525;28;20139;-81
2021/01/23 00:45:48;;;;;;;16.90;3.13;;;;;;;;;;5101116;22;20064;-81
2021/01/23 00:48:15;;;;;;;11.05;2.95;;;;;;;;;;5074003;28;20059;-82
2021/01/23 00:50:43;;;;;;;10.90;2.53;;;;;;;;;;5095537;22;20515;-83
2021/01/23 00:53:10;;;;;;;16.40;3.10;;;;;;;;;;5110743;28;20490;-82
2021/01/23 00:55:37;;;;;;;11.00;2.67;;;;;;;;;;5110683;28;20041;-83
2021/01/23 00:58:04;;;;;;;11.60;2.70;;;;;;;;;;5107895;27;20016;-80
2021/01/23 01:00:31;;;;;;;12.07;3.17;;;;;;;;;;5113909;22;20052;-82
2021/01/23 01:02:58;;;;;;;14.13;2.78;;;;;;;;;;5090095;28;20069;-79
2021/01/23 01:05:25;;;;;;;18.38;3.75;;;;;;;;;;5088076;28;20475;-84
2021/01/23 01:07:53;;;;;;;26.60;4.28;;;;;;;;;;5088593;28;20095;-80
2021/01/23 01:10:20;;;;;;;14.07;3.67;;;;;;;;;;5080267;28;20028;-84
2021/01/23 01:12:47;;;;;;;11.63;3.15;;;;;;;;;;5072122;28;20025;-81
2021/01/23 01:15:14;;;;;;;13.98;3.20;;;;;;;;;;5073851;28;20106;-81
2021/01/23 01:17:41;;;;;;;13.32;2.53;;;;;;;;;;5088045;22;20052;-81
2021/01/23 01:20:08;;;;;;;12.13;3.25;;;;;;;;;;5083400;28;20039;-80
2021/01/23 01:22:36;;;;;;;14.07;2.97;;;;;;;;;;5073887;28;20437;-79
2021/01/23 01:25:03;;;;;;;13.38;3.38;;;;;;;;;;5093779;28;20099;-80
2021/01/23 01:27:30;;;;;;;14.15;2.60;;;;;;;;;;5092147;28;20035;-80
2021/01/23 01:29:57;;;;;;;19.88;3.58;;;;;;;;;;5094016;28;20021;-80
2021/01/23 01:32:24;;;;;;;12.45;3.15;;;;;;;;;;5091927;28;20022;-81
2021/01/23 01:34:51;;;;;;;12.43;3.13;;;;;;;;;;5092749;28;20032;-80
2021/01/23 01:37:18;;;;;;;10.48;3.40;;;;;;;;;;5092012;28;20020;-81
2021/01/23 01:39:45;;;;;;;16.77;3.42;;;;;;;;;;5093631;28;20028;-81
2021/01/23 01:42:12;;;;;;;10.18;3.15;;;;;;;;;;5090671;28;20056;-81
2021/01/23 01:44:39;;;;;;;15.23;4.05;;;;;;;;;;5083378;28;20020;-78
2021/01/23 01:47:06;;;;;;;10.75;2.40;;;;;;;;;;5090111;28;20054;-80
2021/01/23 01:49:34;;;;;;;13.50;3.08;;;;;;;;;;5105294;22;20487;-87
2021/01/23 01:52:01;;;;;;;11.18;2.80;;;;;;;;;;5114138;28;20039;-86
2021/01/23 01:54:28;;;;;;;13.98;2.65;;;;;;;;;;5111781;28;20030;-84
2021/01/23 01:56:55;;;;;;;9.75;2.72;;;;;;;;;;5105636;28;20030;-83
2021/01/23 01:59:22;;;;;;;11.50;3.10;;;;;;;;;;5112820;28;20077;-83
2021/01/23 02:01:55;;;;;;;15.43;3.20;;;;;;;;;;5113650;28;20015;-82
2021/01/23 02:04:31;;;;;;;9.60;2.13;;;;;;;;;;5110615;28;20633;-83
2021/01/23 02:07:04;;;;;;;12.00;2.72;;;;;;;;;;5113803;28;20023;-84
2021/01/23 02:10:00;;;;;;;12.40;3.10;;;;;;;;;;5104232;28;20024;-86
2021/01/23 02:12:33;;;;;;;15.57;4.20;;;;;;;;;;5083399;28;20063;-82
2021/01/23 02:15:14;;;;;;;9.18;2.38;;;;;;;;;;5113505;28;20498;-87
2021/01/23 02:17:51;;;;;;;12.15;3.00;;;;;;;;;;5111104;28;20031;-84
2021/01/23 02:20:18;;;;;;;15.77;3.45;;;;;;;;;;5093764;28;20077;-85
2021/01/23 02:23:13;;;;;;;10.90;3.05;;;;;;;;;;5108276;28;20016;-84
2021/01/23 02:25:46;;;;;;;15.95;3.95;;;;;;;;;;5113373;28;20096;-82
2021/01/23 02:28:13;;;;;;;11.82;2.83;;;;;;;;;;5110171;28;20036;-83
2021/01/23 02:30:58;;;;;;;7.97;2.40;;;;;;;;;;5113230;28;20020;-83
2021/01/23 02:33:26;;;;;;;12.18;3.03;;;;;;;;;;5109363;28;20076;-88
2021/01/23 02:35:54;;;;;;;11.32;2.97;;;;;;;;;;5114389;27;20119;-85
2021/01/23 02:38:21;;;;;;;12.23;3.25;;;;;;;;;;5092678;28;20023;-84
2021/01/23 02:40:48;;;;;;;11.73;3.08;;;;;;;;;;5113238;28;20496;-86
2021/01/23 02:43:20;;;;;;;13.30;3.20;;;;;;;;;;5110790;28;20061;-81
2021/01/23 02:45:56;;;;;;;10.15;2.58;;;;;;;;;;5097015;28;20572;-79
2021/01/23 02:48:23;;;;;;;18.00;3.30;;;;;;;;;;5111699;28;20023;-79
2021/01/23 02:50:50;;;;;;;12.27;3.90;;;;;;;;;;5101472;22;20079;-79
2021/01/23 02:53:22;;;;;;;11.23;3.03;;;;;;;;;;5096184;22;20446;-79
2021/01/23 02:55:53;;;;;;;9.38;2.33;;;;;;;;;;5109453;22;20062;-79
2021/01/23 02:58:22;;;;;;;12.68;3.53;;;;;;;;;;5098204;22;20161;-81
2021/01/23 03:00:50;;;;;;;12.70;2.97;;;;;;;;;;5091696;28;20081;-80
2021/01/23 03:03:21;;;;;;;14.07;3.38;;;;;;;;;;5069654;28;20031;-80
2021/01/23 03:05:48;;;;;;;12.60;3.35;;;;;;;;;;5090328;28;20077;-81
2021/01/23 03:08:16;;;;;;;18.13;3.72;;;;;;;;;;5071941;22;20061;-80
2021/01/23 03:10:47;;;;;;;12.23;2.75;;;;;;;;;;5048709;28;20021;-78
2021/01/23 03:13:14;;;;;;;16.92;3.25;;;;;;;;;;5049849;28;20517;-82
2021/01/23 03:15:42;;;;;;;14.52;3.58;;;;;;;;;;5048142;28;20085;-79
2021/01/23 03:18:10;;;;;;;14.13;3.60;;;;;;;;;;5030716;28;20029;-81
2021/01/23 03:20:37;;;;;;;15.25;3.50;;;;;;;;;;5046117;28;20025;-79
2021/01/23 03:23:04;;;;;;;16.35;3.63;;;;;;;;;;5047067;28;20032;-77
2021/01/23 03:25:32;;;;;;;14.90;3.72;;;;;;;;;;5087010;22;20060;-79
2021/01/23 03:27:59;;;;;;;13.80;2.88;;;;;;;;;;5069673;28;20130;-79
2021/01/23 03:30:28;;;;;;;18.90;3.75;;;;;;;;;;5055369;28;20485;-78
2021/01/23 03:32:56;;;;;;;16.92;4.38;;;;;;;;;;5045820;28;20032;-77
2021/01/23 03:35:23;;;;;;;15.15;3.55;;;;;;;;;;5050691;28;20489;-74
2021/01/23 03:37:50;;;;;;;15.73;3.35;;;;;;;;;;5048716;28;20029;-78
2021/01/23 03:40:17;;;;;;;14.98;3.25;;;;;;;;;;5052473;28;20497;-78
2021/01/23 03:42:45;;;;;;;18.58;3.50;;;;;;;;;;5052504;28;20100;-77
2021/01/23 03:45:12;;;;;;;17.42;3.30;;;;;;;;;;5052482;28;20503;-77
2021/01/23 03:47:39;;;;;;;12.95;3.03;;;;;;;;;;5038114;28;20021;-76
2021/01/23 03:50:10;;;;;;;13.07;2.60;;;;;;;;;;5059419;28;20031;-76
2021/01/23 03:52:38;;;;;;;18.17;3.33;;;;;;;;;;5052724;28;20091;-78
2021/01/23 03:55:08;;;;;;;15.02;3.78;;;;;;;;;;5055206;28;20391;-78
2021/01/23 03:57:36;;;;;;;8.75;2.33;;;;;;;;;;5085331;22;20090;-79
2021/01/23 04:00:05;;;;;;;18.10;3.78;;;;;;;;;;5083705;28;20468;-78
2021/01/23 04:02:32;;;;;;;18.08;3.47;;;;;;;;;;5071262;28;20029;-78
2021/01/23 04:04:59;;;;;;;13.63;3.28;;;;;;;;;;5068425;28;20024;-78
2021/01/23 04:07:26;;;;;;;16.58;3.13;;;;;;;;;;5072094;28;20024;-77
2021/01/23 04:09:53;;;;;;;19.33;3.33;;;;;;;;;;5074874;28;20056;-77
2021/01/23 04:12:21;;;;;;;16.58;3.05;;;;;;;;;;5073043;28;20046;-77
2021/01/23 04:14:48;;;;;;;15.60;3.83;;;;;;;;;;5056769;28;20055;-77
2021/01/23 04:17:15;;;;;;;21.70;3.58;;;;;;;;;;5070851;28;20473;-78
2021/01/23 04:19:42;;;;;;;21.88;3.67;;;;;;;;;;5055537;28;20078;-78
2021/01/23 04:22:09;;;;;;;21.02;3.00;;;;;;;;;;5058191;28;20013;-79
2021/01/23 04:24:36;;;;;;;21.23;3.33;;;;;;;;;;5069384;28;20024;-79
2021/01/23 04:27:03;;;;;;;21.85;4.65;;;;;;;;;;5071017;28;20420;-78
2021/01/23 04:29:30;;;;;;;14.90;3.13;;;;;;;;;;5063036;28;20099;-79
2021/01/23 04:31:57;;;;;;;16.25;4.10;;;;;;;;;;5069427;28;20066;-78
2021/01/23 04:34:25;;;;;;;17.67;3.85;;;;;;;;;;5069514;28;20025;-78
2021/01/23 04:36:55;;;;;;;18.65;3.60;;;;;;;;;;5072158;28;20025;-80
2021/01/23 04:39:22;;;;;;;15.60;3.85;;;;;;;;;;5071897;28;20025;-77
2021/01/23 04:41:52;;;;;;;15.77;4.28;;;;;;;;;;5074396;28;20032;-78
2021/01/23 04:44:23;;;;;;;17.02;3.97;;;;;;;;;;5071958;28;20400;-78
2021/01/23 04:46:50;;;;;;;16.85;3.47;;;;;;;;;;5068236;28;20039;-79
2021/01/23 04:49:18;;;;;;;14.68;3.80;;;;;;;;;;5057165;28;20111;-77
2021/01/23 04:51:45;;;;;;;22.05;3.67;;;;;;;;;;5071816;28;20038;-78
2021/01/23 04:54:12;;;;;;;19.23;4.25;;;;;;;;;;5069256;28;20036;-78
2021/01/23 04:56:39;;;;;;;18.00;3.65;;;;;;;;;;5054254;28;20044;-78
2021/01/23 04:59:06;;;;;;;17.58;3.90;;;;;;;;;;5095206;22;20134;-78
2021/01/23 05:01:33;;;;;;;14.73;3.15;;;;;;;;;;5088273;22;20056;-78
2021/01/23 05:04:03;;;;;;;11.32;2.92;;;;;;;;;;5063612;28;20496;-78
2021/01/23 05:06:31;;;;;;;17.65;4.22;;;;;;;;;;5047929;22;20049;-78
2021/01/23 05:08:58;;;;;;;20.17;3.35;;;;;;;;;;5018773;28;20029;-78
2021/01/23 05:11:43;;;;;;;16.45;4.05;;;;;;;;;;5028914;28;20474;-79
2021/01/23 05:14:14;;;;;;;15.52;4.15;;;;;;;;;;5036324;22;20029;-78
2021/01/23 05:16:41;;;;;;;14.82;3.42;;;;;;;;;;5030493;28;20040;-78
2021/01/23 05:19:09;;;;;;;19.58;3.88;;;;;;;;;;5033799;28;20076;-76
2021/01/23 05:21:36;;;;;;;20.73;4.03;;;;;;;;;;5048179;28;20104;-77
2021/01/23 05:24:05;;;;;;;15.52;3.85;;;;;;;;;;5060014;28;20499;-77
2021/01/23 05:26:32;;;;;;;18.30;3.72;;;;;;;;;;5049805;28;20033;-79
2021/01/23 05:29:09;;;;;;;16.90;3.22;;;;;;;;;;5053083;28;20025;-78
2021/01/23 05:31:37;;;;;;;15.73;3.95;;;;;;;;;;5066798;22;20102;-78
2021/01/23 05:34:23;;;;;;;16.63;3.70;;;;;;;;;;5089670;28;20034;-81
2021/01/23 05:36:50;;;;;;;18.30;4.45;;;;;;;;;;5094696;28;20012;-78
2021/01/23 05:39:17;;;;;;;14.82;3.60;;;;;;;;;;5091140;28;20024;-80
2021/01/23 05:42:02;;;;;;;14.98;3.92;;;;;;;;;;5088082;28;20028;-80
2021/01/23 05:44:29;;;;;;;14.07;3.22;;;;;;;;;;5091419;28;20039;-78
2021/01/23 05:46:56;;;;;;;19.95;4.38;;;;;;;;;;5082749;28;20037;-81
2021/01/23 05:49:23;;;;;;;19.52;3.88;;;;;;;;;;5082727;28;20052;-79
2021/01/23 05:51:51;;;;;;;19.05;3.60;;;;;;;;;;5080668;28;20043;-81
2021/01/23 05:54:18;;;;;;;16.92;3.83;;;;;;;;;;5084793;28;20016;-82
2021/01/23 05:56:47;;;;;;;15.15;3.22;;;;;;;;;;5080605;28;20069;-80
2021/01/23 05:59:14;;;;;;;15.48;3.30;;;;;;;;;;5085441;28;20175;-83
2021/01/23 06:01:42;;;;;;;14.55;3.55;;;;;;;;;;5090620;28;20036;-82
2021/01/23 06:04:14;;;;;;;18.42;4.03;;;;;;;;;;5087867;22;20028;-80
2021/01/23 06:06:47;;;;;;;15.05;3.50;;;;;;;;;;5030235;28;20405;-81
2021/01/23 06:09:32;;;;;;;12.37;3.30;;;;;;;;;;5013344;28;20204;-82
2021/01/23 06:11:59;;;;;;;18.77;4.40;;;;;;;;;;4989616;28;20042;-80
2021/01/23 06:14:36;;;;;;;16.42;3.78;;;;;;;;;;5009256;28;20053;-83
2021/01/23 06:17:04;;;;;;;14.60;3.75;;;;;;;;;;5012566;28;20111;-83
2021/01/23 06:19:31;;;;;;;11.32;2.85;;;;;;;;;;5010089;28;20033;-81
2021/01/23 06:21:58;;;;;;;13.38;3.55;;;;;;;;;;5011304;28;20041;-81
2021/01/23 06:24:31;;;;;;;15.43;3.83;;;;;;;;;;5010751;28;20026;-81
2021/01/23 06:26:59;;;;;;;13.63;2.90;;;;;;;;;;5012562;28;20033;-82
2021/01/23 06:29:38;;;;;;;14.35;3.88;;;;;;;;;;4994067;28;20030;-81
2021/01/23 06:32:21;;;;;;;10.02;3.28;;;;;;;;;;4992950;28;20022;-80
2021/01/23 06:34:49;;;;;;;15.13;3.30;;;;;;;;;;4995712;28;20112;-80
2021/01/23 06:37:22;;;;;;;16.45;2.55;;;;;;;;;;5006683;28;20026;-82
2021/01/23 06:40:10;;;;;;;17.35;3.88;;;;;;;;;;4993128;28;20495;-79
2021/01/23 06:42:41;;;;;;;18.90;4.10;;;;;;;;;;5000361;28;20032;-77
2021/01/23 06:45:15;;;;;;;13.60;3.10;;;;;;;;;;5002211;28;20030;-81
2021/01/23 06:47:43;;;;;;;15.90;3.30;;;;;;;;;;5011527;28;20034;-83
2021/01/23 06:50:11;;;;;;;15.45;3.28;;;;;;;;;;5011654;28;20083;-83
2021/01/23 06:52:48;;;;;;;14.30;2.63;;;;;;;;;;5011174;28;20022;-81
2021/01/23 06:55:16;;;;;;;10.50;3.60;;;;;;;;;;5010047;28;20028;-88
2021/01/23 06:57:44;;;;;;;10.05;2.70;;;;;;;;;;5008206;28;20071;-79
2021/01/23 07:00:15;;;;;;;14.02;3.03;;;;;;;;;;5001713;28;20058;-87
2021/01/23 07:02:42;;;;;;;11.55;2.53;;;;;;;;;;4995043;28;20502;-86
2021/01/23 07:05:10;;;;;;;11.63;3.05;;;;;;;;;;5038624;23;20127;-87
2021/01/23 07:07:38;;;;;;;15.90;3.78;;;;;;;;;;5077846;22;20033;-87
2021/01/23 07:10:06;;;;;;;14.98;3.53;;;;;;;;;;5057777;22;20044;-88
2021/01/23 07:12:37;;;;;;;14.88;3.83;;;;;;;;;;5061539;22;20029;-87
2021/01/23 07:15:05;;;;;;;13.07;3.45;;;;;;;;;;5084550;28;20024;-89
2021/01/23 07:17:36;;;;;;;12.70;2.88;;;;;;;;;;5089463;28;20438;-86
2021/01/23 07:20:07;;;;;;;11.02;2.95;;;;;;;;;;5083459;28;20472;-87
2021/01/23 07:22:34;;;;;;;11.35;3.40;;;;;;;;;;5075781;22;20049;-86
2021/01/23 07:25:02;;;;;;;10.07;3.22;;;;;;;;;;5049457;28;20087;-85
2021/01/23 07:27:29;;;;;;;16.02;3.40;;;;;;;;;;5045740;28;20617;-84
2021/01/23 07:29:56;;;;;;;11.25;3.10;;;;;;;;;;5040161;28;20393;-85
2021/01/23 07:32:24;;;;;;;17.02;4.07;;;;;;;;;;5038219;28;20021;-87
2021/01/23 07:34:55;;;;;;;14.05;2.90;;;;;;;;;;5026865;28;20570;-88
2021/01/23 07:37:40;;;;;;;12.35;2.63;;;;;;;;;;5046415;28;20021;-87
2021/01/23 07:40:07;;;;;;;17.73;3.08;;;;;;;;;;5130052;22;20044;-88
2021/01/23 07:42:35;;;;;;;9.50;2.85;;;;;;;;;;5127932;28;20074;-84
2021/01/23 07:45:04;;;;;;;10.20;3.10;;;;;;;;;;5111432;28;20422;-85
2021/01/23 07:47:31;;;;;;;10.50;2.72;;;;;;;;;;5110212;28;20076;-85
2021/01/23 07:50:08;;;;;;;10.48;2.72;;;;;;;;;;5111586;28;20118;-86
2021/01/23 07:52:36;;;;;;;9.38;2.80;;;;;;;;;;5108453;28;20046;-83
2021/01/23 07:55:03;;;;;;;9.43;2.53;;;;;;;;;;5110508;28;20027;-83
2021/01/23 07:57:30;;;;;;;8.48;2.90;;;;;;;;;;5107821;28;20036;-86
2021/01/23 07:59:58;;;;;;;9.13;2.50;;;;;;;;;;5112321;28;20043;-85
2021/01/23 08:02:25;;;;;;;6.55;2.53;;;;;;;;;;5109389;28;20023;-85
2021/01/23 08:04:56;;;;;;;6.97;2.05;;;;;;;;;;5112078;28;20012;-84
2021/01/23 08:07:26;;;;;;;8.07;1.92;;;;;;;;;;5109279;28;20028;-83
2021/01/23 08:10:11;;;;;;;8.13;2.25;;;;;;;;;;5110693;28;20058;-83
2021/01/23 08:12:43;;;;;;;9.15;2.67;;;;;;;;;;5097990;22;20085;-82
2021/01/23 08:15:11;;;;;;;6.18;1.67;;;;;;;;;;5053538;28;20032;-86
2021/01/23 08:17:42;;;;;;;5.40;1.92;;;;;;;;;;5069559;28;20363;-86
2021/01/23 08:20:10;;;;;;;7.50;1.92;;;;;;;;;;5058921;28;20017;-85
2021/01/23 08:22:55;;;;;;;7.20;2.10;;;;;;;;;;5046718;28;20383;-85
2021/01/23 08:25:26;;;;;;;7.32;1.67;;;;;;;;;;5031191;28;20364;-86
2021/01/23 08:27:54;;;;;;;5.80;1.50;;;;;;;;;;5034531;28;20060;-85
2021/01/23 08:30:21;;;;;;;7.82;1.52;;;;;;;;;;5035152;28;20083;-86
2021/01/23 08:32:49;;;;;;;6.88;1.98;;;;;;;;;;5038585;28;20461;-85
2021/01/23 08:35:17;;;;;;;8.23;1.92;;;;;;;;;;5039399;28;20454;-85
2021/01/23 08:37:45;;;;;;;6.68;2.20;;;;;;;;;;5034521;28;20454;-86
2021/01/23 08:40:13;;;;;;;11.07;1.95;;;;;;;;;;5034794;28;20026;-85
2021/01/23 08:42:40;;;;;;;7.15;2.38;;;;;;;;;;5034548;28;20112;-85
2021/01/23 08:45:07;;;;;;;5.28;1.95;;;;;;;;;;5034694;28;20063;-85
2021/01/23 08:47:34;;;;;;;5.75;1.70;;;;;;;;;;5036056;28;20032;-85
2021/01/23 08:50:01;;;;;;;7.53;1.77;;;;;;;;;;5037142;28;20036;-84
2021/01/23 08:52:28;;;;;;;5.00;1.80;;;;;;;;;;5043456;28;21682;-84
2021/01/23 08:54:55;;;;;;;7.35;2.38;;;;;;;;;;5033607;28;20025;-85
2021/01/23 08:57:22;;;;;;;8.65;2.33;;;;;;;;;;5039630;28;20045;-85
2021/01/23 08:59:49;;;;;;;6.90;2.30;;;;;;;;;;5034159;28;20100;-85
2021/01/23 09:02:17;;;;;;;12.05;2.45;;;;;;;;;;5033994;28;20029;-86
2021/01/23 09:04:44;;;;;;;4.43;1.80;;;;;;;;;;5048940;28;20031;-85
2021/01/23 09:07:11;;;;;;;7.82;1.55;;;;;;;;;;5052981;28;20036;-84
2021/01/23 09:09:38;;;;;;;5.05;1.75;;;;;;;;;;5040365;28;20095;-84
2021/01/23 09:12:05;;;;;;;6.35;1.73;;;;;;;;;;5043253;22;20051;-84
2021/01/23 09:14:33;;;;;;;4.60;1.67;;;;;;;;;;5083704;22;20050;-85
2021/01/23 09:17:00;;;;;;;4.07;1.58;;;;;;;;;;5100816;22;20075;-85
2021/01/23 09:19:27;;;;;;;7.47;2.15;;;;;;;;;;5085089;28;20029;-85
2021/01/23 09:21:54;;;;;;;9.45;3.33;;;;;;;;;;5072272;22;20044;-85
2021/01/23 09:24:21;;;;;;;10.50;2.58;;;;;;;;;;5071297;28;20025;-85
2021/01/23 09:26:48;;;;;;;7.95;2.63;;;;;;;;;;5071567;28;20119;-85
2021/01/23 09:29:16;;;;;;;10.00;2.40;;;;;;;;;;5094234;22;20580;-85
2021/01/23 09:31:44;;;;;;;7.00;2.40;;;;;;;;;;5135019;27;20024;-84
2021/01/23 09:34:11;;;;;;;5.53;2.22;;;;;;;;;;5132650;27;20019;-85
2021/01/23 09:36:39;;;;;;;7.80;2.40;;;;;;;;;;5134767;27;20020;-85
2021/01/23 09:39:06;;;;;;;9.43;2.13;;;;;;;;;;5131856;27;20051;-85
2021/01/23 09:41:33;;;;;;;12.25;2.38;;;;;;;;;;5134796;27;20019;-84
2021/01/23 09:44:00;;;;;;;6.03;2.30;;;;;;;;;;5132615;27;20023;-85
2021/01/23 09:46:27;;;;;;;11.13;2.33;;;;;;;;;;5110138;22;20063;-85
2021/01/23 09:48:54;;;;;;;7.72;2.30;;;;;;;;;;5068987;28;20025;-85
2021/01/23 09:51:21;;;;;;;8.02;2.17;;;;;;;;;;5053564;28;20024;-85
2021/01/23 09:53:48;;;;;;;8.35;3.00;;;;;;;;;;5038962;28;20405;-85
2021/01/23 09:56:16;;;;;;;6.90;2.90;;;;;;;;;;5033357;28;20095;-85
2021/01/23 09:58:43;;;;;;;7.80;2.55;;;;;;;;;;5033427;28;20478;-85
2021/01/23 10:01:10;;;;;;;7.22;2.00;;;;;;;;;;5036710;28;20064;-84
2021/01/23 10:03:37;;;;;;;9.25;2.97;;;;;;;;;;5046416;28;20017;-84
2021/01/23 10:06:04;;;;;;;10.98;2.80;;;;;;;;;;5053262;28;20064;-84
2021/01/23 10:08:31;;;;;;;9.77;2.28;;;;;;;;;;5049243;28;20023;-85
2021/01/23 10:10:58;;;;;;;8.70;3.33;;;;;;;;;;5053242;28;20539;-84
2021/01/23 10:13:25;;;;;;;12.35;3.15;;;;;;;;;;5051023;28;20125;-85
2021/01/23 10:15:52;;;;;;;4.40;2.03;;;;;;;;;;5053047;28;20428;-84
2021/01/23 10:18:19;;;;;;;7.95;2.25;;;;;;;;;;5050466;28;20029;-84
2021/01/23 10:20:46;;;;;;;10.82;3.15;;;;;;;;;;5070955;22;20091;-84
2021/01/23 10:23:13;;;;;;;5.97;3.08;;;;;;;;;;5049823;28;20025;-84
2021/01/23 10:25:41;;;;;;;8.50;2.75;;;;;;;;;;5052805;28;20049;-84
2021/01/23 10:28:08;;;;;;;7.82;3.03;;;;;;;;;;5033266;28;20083;-84
2021/01/23 10:30:35;;;;;;;7.47;2.60;;;;;;;;;;5050690;28;20024;-84
2021/01/23 10:33:02;;;;;;;9.38;2.72;;;;;;;;;;5049233;28;20017;-84
2021/01/23 10:35:29;;;;;;;12.18;3.08;;;;;;;;;;5051276;28;20050;-84
2021/01/23 10:37:56;;;;;;;7.88;2.50;;;;;;;;;;5050474;28;20043;-84
2021/01/23 10:40:23;;;;;;;9.05;2.83;;;;;;;;;;5049996;28;20033;-84
2021/01/23 10:42:50;;;;;;;7.60;3.58;;;;;;;;;;5050062;28;20021;-84
2021/01/23 10:45:17;;;;;;;14.77;3.17;;;;;;;;;;5052390;28;20108;-84
2021/01/23 10:47:44;;;;;;;10.00;3.53;;;;;;;;;;5050907;28;20029;-83
2021/01/23 10:50:12;;;;;;;13.23;3.33;;;;;;;;;;5051724;28;20033;-84
2021/01/23 10:52:39;;;;;;;11.32;3.30;;;;;;;;;;5050381;28;20100;-84
2021/01/23 10:55:06;;;;;;;12.80;2.88;;;;;;;;;;5049634;28;20047;-83
2021/01/23 10:57:33;;;;;;;9.70;3.45;;;;;;;;;;5048644;28;20021;-83
2021/01/23 11:00:01;;;;;;;10.63;3.13;;;;;;;;;;5051849;28;20035;-83
2021/01/23 11:02:28;;;;;;;11.57;4.03;;;;;;;;;;5047785;28;20492;-83
2021/01/23 11:04:55;;;;;;;10.60;3.15;;;;;;;;;;5051930;28;20036;-84
2021/01/23 11:07:22;;;;;;;9.48;3.50;;;;;;;;;;5044776;28;20127;-84
2021/01/23 11:09:49;;;;;;;7.72;3.20;;;;;;;;;;5050992;28;20025;-84
2021/01/23 11:12:16;;;;;;;12.73;4.53;;;;;;;;;;5049409;28;20028;-84
2021/01/23 11:14:43;;;;;;;9.00;4.28;;;;;;;;;;5050103;28;20503;-84
2021/01/23 11:17:10;;;;;;;13.23;4.72;;;;;;;;;;5048517;28;20029;-83
2021/01/23 11:19:37;;;;;;;13.27;4.32;;;;;;;;;;5067956;22;20151;-84
2021/01/23 11:22:04;;;;;;;10.30;3.38;;;;;;;;;;5082630;22;20518;-83
2021/01/23 11:24:31;;;;;;;11.30;3.90;;;;;;;;;;5109311;22;20059;-83
2021/01/23 11:26:59;;;;;;;10.35;4.40;;;;;;;;;;5094168;28;20047;-84
2021/01/23 11:29:26;;;;;;;12.95;3.70;;;;;;;;;;5098851;22;20048;-84
2021/01/23 11:31:53;;;;;;;14.63;3.92;;;;;;;;;;5072129;28;20023;-84
2021/01/23 11:34:20;;;;;;;14.57;3.10;;;;;;;;;;5069865;28;20029;-84
2021/01/23 11:36:47;;;;;;;11.88;3.40;;;;;;;;;;5071026;22;20108;-84
2021/01/23 11:39:14;;;;;;;11.73;3.28;;;;;;;;;;5031159;28;20029;-83
2021/01/23 11:41:41;;;;;;;12.90;2.97;;;;;;;;;;5051915;28;20036;-84
2021/01/23 11:44:08;;;;;;;13.45;3.45;;;;;;;;;;5015047;28;20405;-84
2021/01/23 11:46:35;;;;;;;12.52;2.97;;;;;;;;;;5032050;28;20045;-84
2021/01/23 11:49:02;;;;;;;9.85;3.40;;;;;;;;;;5029768;28;20044;-84
2021/01/23 11:51:30;;;;;;;12.13;3.25;;;;;;;;;;5031906;28;20109;-84
2021/01/23 11:53:58;;;;;;;12.93;3.30;;;;;;;;;;5061411;22;20052;-83
2021/01/23 11:56:26;;;;;;;14.38;3.53;;;;;;;;;;5068041;28;20029;-84
2021/01/23 11:58:54;;;;;;;15.48;3.58;;;;;;;;;;5039186;28;20025;-84
2021/01/23 12:01:21;;;;;;;12.15;3.90;;;;;;;;;;5053417;28;20393;-84
2021/01/23 12:03:49;;;;;;;16.35;3.40;;;;;;;;;;5067301;28;20027;-84
2021/01/23 12:06:16;;;;;;;13.38;3.83;;;;;;;;;;5074982;28;20032;-84
2021/01/23 12:08:43;;;;;;;12.27;3.30;;;;;;;;;;5071465;28;20048;-83
2021/01/23 12:11:10;;;;;;;11.40;2.72;;;;;;;;;;5073970;28;20024;-84
2021/01/23 12:13:37;;;;;;;18.52;3.90;;;;;;;;;;5073105;28;20062;-84
2021/01/23 12:16:04;;;;;;;14.25;3.08;;;;;;;;;;5075436;28;20031;-84
2021/01/23 12:18:31;;;;;;;15.05;3.17;;;;;;;;;;5072966;28;20021;-84
2021/01/23 12:20:59;;;;;;;9.20;2.83;;;;;;;;;;5075021;28;20439;-83
2021/01/23 12:23:26;;;;;;;14.35;3.40;;;;;;;;;;5072808;28;20043;-84
2021/01/23 12:25:53;;;;;;;12.38;3.28;;;;;;;;;;5081969;23;20452;-83
2021/01/23 12:28:20;;;;;;;18.10;3.92;;;;;;;;;;5052579;28;20401;-83
2021/01/23 12:30:47;;;;;;;17.02;4.32;;;;;;;;;;5055017;28;20021;-84
2021/01/23 12:33:14;;;;;;;13.52;3.15;;;;;;;;;;5049876;28;20028;-84
2021/01/23 12:35:41;;;;;;;12.60;3.85;;;;;;;;;;5054587;28;20595;-83
2021/01/23 12:38:08;;;;;;;11.88;3.08;;;;;;;;;;5060146;28;20037;-83
2021/01/23 12:40:35;;;;;;;11.32;3.70;;;;;;;;;;5075006;28;20028;-84
2021/01/23 12:43:02;;;;;;;12.63;3.15;;;;;;;;;;5073040;28;20028;-83
2021/01/23 12:45:30;;;;;;;15.35;3.28;;;;;;;;;;5074633;28;20028;-83
2021/01/23 12:47:57;;;;;;;15.90;3.60;;;;;;;;;;5072567;28;20020;-83
2021/01/23 12:50:24;;;;;;;19.17;4.05;;;;;;;;;;5074496;28;20084;-83
2021/01/23 12:52:51;;;;;;;15.25;3.15;;;;;;;;;;5072740;28;20510;-83
2021/01/23 12:55:18;;;;;;;12.07;3.75;;;;;;;;;;5074566;28;20034;-84
2021/01/23 12:57:45;;;;;;;12.45;3.55;;;;;;;;;;5072448;28;20033;-84
2021/01/23 13:00:14;;;;;;;21.67;4.95;;;;;;;;;;5072876;28;20082;-83
2021/01/23 13:02:41;;;;;;;14.90;3.08;;;;;;;;;;5053248;28;20419;-83
2021/01/23 13:05:12;;;;;;;13.10;3.58;;;;;;;;;;5070727;28;20025;-83
2021/01/23 13:07:39;;;;;;;10.90;3.50;;;;;;;;;;5072095;28;20039;-83
2021/01/23 13:10:06;;;;;;;12.30;3.38;;;;;;;;;;5070715;28;20020;-83
2021/01/23 13:12:33;;;;;;;12.85;4.38;;;;;;;;;;5069354;28;20025;-83
2021/01/23 13:15:00;;;;;;;12.65;3.05;;;;;;;;;;5073020;28;20017;-83
2021/01/23 13:17:27;;;;;;;13.73;3.67;;;;;;;;;;5072112;28;20016;-84
2021/01/23 13:19:55;;;;;;;15.90;3.47;;;;;;;;;;5071722;28;20058;-83
2021/01/23 13:22:22;;;;;;;10.45;3.50;;;;;;;;;;5071665;28;20049;-83
2021/01/23 13:24:49;;;;;;;10.38;3.72;;;;;;;;;;5073768;28;20388;-83
2021/01/23 13:27:17;;;;;;;17.77;4.03;;;;;;;;;;5096020;22;20110;-83
2021/01/23 13:32:12;;;;;;;17.70;3.70;;;;;;;;;;5091698;28;20040;-84
2021/01/23 13:34:39;;;;;;;13.65;3.88;;;;;;;;;;5113922;22;20055;-83
2021/01/23 13:37:07;;;;;;;15.05;3.72;;;;;;;;;;5114370;28;20023;-83
2021/01/23 13:39:36;;;;;;;14.05;3.47;;;;;;;;;;5113001;28;20043;-83
2021/01/23 13:42:03;;;;;;;13.40;3.30;;;;;;;;;;5112683;28;20035;-84
2021/01/23 13:44:30;;;;;;;13.13;3.92;;;;;;;;;;5115979;22;20056;-84
2021/01/23 13:46:57;;;;;;;13.98;3.85;;;;;;;;;;5093603;28;20032;-83
2021/01/23 13:49:24;;;;;;;10.27;3.20;;;;;;;;;;5090227;28;20026;-83
2021/01/23 13:51:51;;;;;;;18.08;4.00;;;;;;;;;;5093704;28;20026;-83
2021/01/23 13:54:18;;;;;;;18.20;3.58;;;;;;;;;;5089311;28;20031;-83
2021/01/23 13:56:46;;;;;;;11.95;3.38;;;;;;;;;;5074869;28;20119;-83
2021/01/23 13:59:13;;;;;;;12.73;2.97;;;;;;;;;;5089661;28;20020;-83
2021/01/23 14:01:40;;;;;;;12.57;3.78;;;;;;;;;;5093640;22;20055;-84
2021/01/23 14:04:07;;;;;;;15.50;3.30;;;;;;;;;;5073009;28;20032;-83
2021/01/23 14:06:34;;;;;;;15.05;3.20;;;;;;;;;;5093370;28;20036;-83
2021/01/23 14:09:01;;;;;;;16.08;3.65;;;;;;;;;;5091966;28;20103;-83
2021/01/23 14:11:28;;;;;;;22.42;3.28;;;;;;;;;;5093083;28;20032;-83
2021/01/23 14:13:55;;;;;;;15.02;2.85;;;;;;;;;;5078798;28;20020;-84
2021/01/23 14:16:22;;;;;;;15.23;3.92;;;;;;;;;;5073091;28;20217;-83
2021/01/23 14:18:51;;;;;;;17.63;4.22;;;;;;;;;;5072574;28;20016;-83
2021/01/23 14:21:18;;;;;;;12.90;3.60;;;;;;;;;;5072566;28;20062;-83
2021/01/23 14:23:45;;;;;;;21.65;4.95;;;;;;;;;;5084759;28;20016;-83
2021/01/23 14:26:12;;;;;;;16.33;4.15;;;;;;;;;;5077973;28;20062;-83
2021/01/23 14:28:39;;;;;;;19.83;3.97;;;;;;;;;;5072946;28;20051;-83
2021/01/23 14:31:06;;;;;;;14.50;3.75;;;;;;;;;;5072728;28;20028;-83
2021/01/23 14:33:33;;;;;;;18.25;3.90;;;;;;;;;;5100208;22;20052;-83
2021/01/23 14:36:05;;;;;;;18.92;4.38;;;;;;;;;;5092972;28;20074;-83
2021/01/23 14:38:32;;;;;;;10.85;3.22;;;;;;;;;;5090775;28;20016;-83
2021/01/23 14:41:00;;;;;;;17.25;3.60;;;;;;;;;;5092596;28;20106;-83
2021/01/23 14:43:27;;;;;;;17.73;4.50;;;;;;;;;;5090126;28;20027;-83
2021/01/23 14:45:54;;;;;;;17.02;3.88;;;;;;;;;;5092616;28;20553;-83